sensor_id;sensor_type;location;lat;lon;timestamp;pressure;altitude;pressure_sealevel;temperature;humidity
71764;BME280;59602;52.142;5.408;2023-03-22T00:00:36;101064.66;;;9.73;85.93
71764;BME280;59602;52.142;5.408;2023-03-22T00:03:05;101063.47;;;9.70;86.27
71764;BME280;59602;52.142;5.408;2023-03-22T00:05:36;101053.78;;;9.69;86.09
71764;BME280;59602;52.142;5.408;2023-03-22T00:08:08;101064.22;;;9.67;85.99
71764;BME280;59602;52.142;5.408;2023-03-22T00:10:42;101056.44;;;9.66;86.24
71764;BME280;59602;52.142;5.408;2023-03-22T00:13:14;101057.94;;;9.63;86.31
71764;BME280;59602;52.142;5.408;2023-03-22T00:15:42;101049.03;;;9.63;86.38
71764;BME280;59602;52.142;5.408;2023-03-22T00:18:16;101047.03;;;9.60;86.53
71764;BME280;59602;52.142;5.408;2023-03-22T00:20:47;101040.78;;;9.55;86.15
71764;BME280;59602;52.142;5.408;2023-03-22T00:23:15;101034.88;;;9.50;86.54
71764;BME280;59602;52.142;5.408;2023-03-22T00:25:43;101036.06;;;9.49;86.72
71764;BME280;59602;52.142;5.408;2023-03-22T00:28:12;101032.50;;;9.45;86.71
71764;BME280;59602;52.142;5.408;2023-03-22T00:30:49;101034.41;;;9.44;87.07
71764;BME280;59602;52.142;5.408;2023-03-22T00:33:16;101018.88;;;9.41;87.23
71764;BME280;59602;52.142;5.408;2023-03-22T00:35:49;101027.78;;;9.42;87.44
71764;BME280;59602;52.142;5.408;2023-03-22T00:38:18;101029.78;;;9.45;87.22
71764;BME280;59602;52.142;5.408;2023-03-22T00:40:49;101032.09;;;9.43;87.36
71764;BME280;59602;52.142;5.408;2023-03-22T00:43:16;101026.22;;;9.41;87.39
71764;BME280;59602;52.142;5.408;2023-03-22T00:45:43;101020.31;;;9.35;87.51
71764;BME280;59602;52.142;5.408;2023-03-22T00:48:10;101018.41;;;9.35;87.62
71764;BME280;59602;52.142;5.408;2023-03-22T00:50:40;101010.63;;;9.34;87.10
71764;BME280;59602;52.142;5.408;2023-03-22T00:53:09;101010.22;;;9.32;87.65
71764;BME280;59602;52.142;5.408;2023-03-22T00:55:36;101010.56;;;9.30;87.50
71764;BME280;59602;52.142;5.408;2023-03-22T00:58:02;101007.03;;;9.26;87.43
71764;BME280;59602;52.142;5.408;2023-03-22T01:00:30;101004.72;;;9.28;87.59
71764;BME280;59602;52.142;5.408;2023-03-22T01:02:59;100998.09;;;9.26;87.64
71764;BME280;59602;52.142;5.408;2023-03-22T01:05:33;101001.59;;;9.26;87.56
71764;BME280;59602;52.142;5.408;2023-03-22T01:08:01;100992.75;;;9.29;87.68
71764;BME280;59602;52.142;5.408;2023-03-22T01:10:35;100986.22;;;9.34;87.27
71764;BME280;59602;52.142;5.408;2023-03-22T01:13:04;100973.06;;;9.36;87.11
71764;BME280;59602;52.142;5.408;2023-03-22T01:15:33;100969.97;;;9.38;87.23
71764;BME280;59602;52.142;5.408;2023-03-22T01:17:59;100968.41;;;9.37;87.33
71764;BME280;59602;52.142;5.408;2023-03-22T01:20:35;100967.25;;;9.38;87.00
71764;BME280;59602;52.142;5.408;2023-03-22T01:23:02;100961.81;;;9.38;87.04
71764;BME280;59602;52.142;5.408;2023-03-22T01:25:32;100964.94;;;9.36;87.10
71764;BME280;59602;52.142;5.408;2023-03-22T01:27:59;100948.66;;;9.36;87.27
71764;BME280;59602;52.142;5.408;2023-03-22T01:30:28;100950.56;;;9.35;86.97
71764;BME280;59602;52.142;5.408;2023-03-22T01:33:13;100946.72;;;9.37;86.93
71764;BME280;59602;52.142;5.408;2023-03-22T01:35:49;100942.44;;;9.35;86.96
71764;BME280;59602;52.142;5.408;2023-03-22T01:38:16;100941.63;;;9.35;87.09
71764;BME280;59602;52.142;5.408;2023-03-22T01:40:43;100934.66;;;9.34;87.27
71764;BME280;59602;52.142;5.408;2023-03-22T01:43:13;100931.53;;;9.32;87.03
71764;BME280;59602;52.142;5.408;2023-03-22T01:45:46;100935.38;;;9.31;87.39
71764;BME280;59602;52.142;5.408;2023-03-22T01:50:51;100910.16;;;9.27;87.43
71764;BME280;59602;52.142;5.408;2023-03-22T01:53:23;100912.91;;;9.30;87.61
71764;BME280;59602;52.142;5.408;2023-03-22T01:55:54;100908.22;;;9.27;87.86
71764;BME280;59602;52.142;5.408;2023-03-22T01:58:25;100901.22;;;9.26;87.80
71764;BME280;59602;52.142;5.408;2023-03-22T02:00:52;100892.28;;;9.26;87.78
71764;BME280;59602;52.142;5.408;2023-03-22T02:03:28;100891.25;;;9.34;87.52
71764;BME280;59602;52.142;5.408;2023-03-22T02:05:56;100883.94;;;9.38;86.93
71764;BME280;59602;52.142;5.408;2023-03-22T02:08:25;100876.56;;;9.39;87.24
71764;BME280;59602;52.142;5.408;2023-03-22T02:10:54;100865.72;;;9.39;87.14
71764;BME280;59602;52.142;5.408;2023-03-22T02:16:03;100864.53;;;9.40;87.15
71764;BME280;59602;52.142;5.408;2023-03-22T02:21:25;100863.34;;;9.33;87.02
71764;BME280;59602;52.142;5.408;2023-03-22T02:24:23;100856.69;;;9.31;87.42
71764;BME280;59602;52.142;5.408;2023-03-22T02:27:14;100849.31;;;9.28;87.32
71764;BME280;59602;52.142;5.408;2023-03-22T02:32:35;100841.53;;;9.26;87.75
71764;BME280;59602;52.142;5.408;2023-03-22T02:43:33;100827.59;;;9.28;88.14
71764;BME280;59602;52.142;5.408;2023-03-22T02:46:07;100827.22;;;9.29;88.23
71764;BME280;59602;52.142;5.408;2023-03-22T02:48:43;100818.31;;;9.29;88.09
71764;BME280;59602;52.142;5.408;2023-03-22T02:51:18;100811.31;;;9.28;88.34
71764;BME280;59602;52.142;5.408;2023-03-22T02:54:02;100811.72;;;9.30;88.57
71764;BME280;59602;52.142;5.408;2023-03-22T02:56:36;100809.44;;;9.32;88.79
71764;BME280;59602;52.142;5.408;2023-03-22T02:59:07;100809.06;;;9.33;88.78
71764;BME280;59602;52.142;5.408;2023-03-22T03:01:43;100809.06;;;9.33;88.62
71764;BME280;59602;52.142;5.408;2023-03-22T03:04:16;100793.91;;;9.32;88.57
71764;BME280;59602;52.142;5.408;2023-03-22T03:06:46;100795.91;;;9.35;89.01
71764;BME280;59602;52.142;5.408;2023-03-22T03:09:16;100794.00;;;9.40;89.36
71764;BME280;59602;52.142;5.408;2023-03-22T03:11:47;100797.88;;;9.39;89.32
71764;BME280;59602;52.142;5.408;2023-03-22T03:14:23;100787.44;;;9.41;89.59
71764;BME280;59602;52.142;5.408;2023-03-22T03:25:02;100807.13;;;9.34;90.29
71764;BME280;59602;52.142;5.408;2023-03-22T03:27:39;100795.09;;;9.35;90.44
71764;BME280;59602;52.142;5.408;2023-03-22T03:30:18;100810.97;;;9.33;90.54
71764;BME280;59602;52.142;5.408;2023-03-22T03:32:53;100804.00;;;9.32;90.95
71764;BME280;59602;52.142;5.408;2023-03-22T03:35:32;100793.91;;;9.32;90.91
71764;BME280;59602;52.142;5.408;2023-03-22T03:38:08;100793.91;;;9.32;91.17
71764;BME280;59602;52.142;5.408;2023-03-22T03:40:40;100794.69;;;9.33;91.18
71764;BME280;59602;52.142;5.408;2023-03-22T03:43:11;100798.94;;;9.30;91.58
71764;BME280;59602;52.142;5.408;2023-03-22T03:45:50;100800.09;;;9.29;91.42
71764;BME280;59602;52.142;5.408;2023-03-22T03:48:20;100795.44;;;9.30;91.33
71764;BME280;59602;52.142;5.408;2023-03-22T03:50:58;100791.63;;;9.34;91.55
71764;BME280;59602;52.142;5.408;2023-03-22T03:53:27;100783.88;;;9.37;91.80
71764;BME280;59602;52.142;5.408;2023-03-22T03:55:57;100788.97;;;9.38;91.60
71764;BME280;59602;52.142;5.408;2023-03-22T03:58:24;100787.06;;;9.42;92.04
71764;BME280;59602;52.142;5.408;2023-03-22T04:00:51;100784.38;;;9.46;91.94
71764;BME280;59602;52.142;5.408;2023-03-22T04:03:17;100787.50;;;9.48;91.89
71764;BME280;59602;52.142;5.408;2023-03-22T04:05:45;100785.19;;;9.50;92.15
71764;BME280;59602;52.142;5.408;2023-03-22T04:08:12;100798.41;;;9.51;91.96
71764;BME280;59602;52.142;5.408;2023-03-22T04:10:39;100791.03;;;9.52;92.26
71764;BME280;59602;52.142;5.408;2023-03-22T04:13:07;100785.97;;;9.50;92.24
71764;BME280;59602;52.142;5.408;2023-03-22T04:15:35;100789.50;;;9.54;92.58
71764;BME280;59602;52.142;5.408;2023-03-22T04:18:04;100784.47;;;9.56;92.52
71764;BME280;59602;52.142;5.408;2023-03-22T04:20:32;100790.31;;;9.59;92.20
71764;BME280;59602;52.142;5.408;2023-03-22T04:23:00;100787.22;;;9.60;92.33
71764;BME280;59602;52.142;5.408;2023-03-22T04:25:29;100773.66;;;9.60;92.58
71764;BME280;59602;52.142;5.408;2023-03-22T04:27:57;100771.31;;;9.62;92.25
71764;BME280;59602;52.142;5.408;2023-03-22T04:30:26;100774.84;;;9.66;92.40
71764;BME280;59602;52.142;5.408;2023-03-22T04:32:53;100775.25;;;9.65;92.33
71764;BME280;59602;52.142;5.408;2023-03-22T04:35:20;100771.00;;;9.67;92.52
71764;BME280;59602;52.142;5.408;2023-03-22T04:37:46;100764.03;;;9.70;92.17
71764;BME280;59602;52.142;5.408;2023-03-22T04:40:16;100759.38;;;9.70;92.39
71764;BME280;59602;52.142;5.408;2023-03-22T04:42:43;100762.88;;;9.71;92.10
71764;BME280;59602;52.142;5.408;2023-03-22T04:45:10;100763.69;;;9.71;92.19
71764;BME280;59602;52.142;5.408;2023-03-22T04:47:38;100759.78;;;9.72;92.03
71764;BME280;59602;52.142;5.408;2023-03-22T04:50:07;100760.16;;;9.71;91.88
71764;BME280;59602;52.142;5.408;2023-03-22T04:52:38;100766.00;;;9.73;92.09
71764;BME280;59602;52.142;5.408;2023-03-22T04:55:07;100752.81;;;9.71;91.51
71764;BME280;59602;52.142;5.408;2023-03-22T04:57:34;100760.56;;;9.73;91.87
71764;BME280;59602;52.142;5.408;2023-03-22T05:00:02;100753.94;;;9.70;92.09
71764;BME280;59602;52.142;5.408;2023-03-22T05:02:33;100748.53;;;9.70;91.97
71764;BME280;59602;52.142;5.408;2023-03-22T05:05:06;100747.75;;;9.70;91.92
71764;BME280;59602;52.142;5.408;2023-03-22T05:07:33;100748.53;;;9.70;91.99
71764;BME280;59602;52.142;5.408;2023-03-22T05:10:02;100731.09;;;9.71;91.94
71764;BME280;59602;52.142;5.408;2023-03-22T05:12:29;100738.44;;;9.71;91.79
71764;BME280;59602;52.142;5.408;2023-03-22T05:14:56;100743.88;;;9.71;91.53
71764;BME280;59602;52.142;5.408;2023-03-22T05:17:26;100730.69;;;9.73;91.54
71764;BME280;59602;52.142;5.408;2023-03-22T05:19:55;100739.25;;;9.71;91.67
71764;BME280;59602;52.142;5.408;2023-03-22T05:22:22;100743.09;;;9.70;91.59
71764;BME280;59602;52.142;5.408;2023-03-22T05:24:49;100736.47;;;9.68;91.21
71764;BME280;59602;52.142;5.408;2023-03-22T05:27:15;100738.78;;;9.66;91.58
71764;BME280;59602;52.142;5.408;2023-03-22T05:29:42;100732.59;;;9.65;91.18
71764;BME280;59602;52.142;5.408;2023-03-22T05:32:10;100737.63;;;9.63;91.61
71764;BME280;59602;52.142;5.408;2023-03-22T05:34:37;100731.41;;;9.63;91.38
71764;BME280;59602;52.142;5.408;2023-03-22T05:37:04;100725.19;;;9.62;91.05
71764;BME280;59602;52.142;5.408;2023-03-22T05:39:31;100726.72;;;9.60;91.02
71764;BME280;59602;52.142;5.408;2023-03-22T05:41:58;100725.56;;;9.61;90.91
71764;BME280;59602;52.142;5.408;2023-03-22T05:44:28;100726.34;;;9.61;91.09
71764;BME280;59602;52.142;5.408;2023-03-22T05:46:54;100721.28;;;9.60;91.08
71764;BME280;59602;52.142;5.408;2023-03-22T05:49:21;100729.81;;;9.58;91.27
71764;BME280;59602;52.142;5.408;2023-03-22T05:51:55;100722.81;;;9.57;90.94
71764;BME280;59602;52.142;5.408;2023-03-22T05:54:23;100715.84;;;9.56;91.08
71764;BME280;59602;52.142;5.408;2023-03-22T05:56:50;100708.47;;;9.56;91.14
71764;BME280;59602;52.142;5.408;2023-03-22T05:59:19;100705.81;;;9.60;91.06
71764;BME280;59602;52.142;5.408;2023-03-22T06:01:46;100714.72;;;9.61;90.93
71764;BME280;59602;52.142;5.408;2023-03-22T06:04:13;100707.72;;;9.60;90.91
71764;BME280;59602;52.142;5.408;2023-03-22T06:06:41;100711.59;;;9.62;90.76
71764;BME280;59602;52.142;5.408;2023-03-22T06:09:08;100712.00;;;9.64;90.93
71764;BME280;59602;52.142;5.408;2023-03-22T06:11:42;100707.00;;;9.66;91.01
71764;BME280;59602;52.142;5.408;2023-03-22T06:14:09;100707.41;;;9.68;90.64
71764;BME280;59602;52.142;5.408;2023-03-22T06:16:36;100707.81;;;9.70;90.39
71764;BME280;59602;52.142;5.408;2023-03-22T06:19:02;100713.22;;;9.70;90.92
71764;BME280;59602;52.142;5.408;2023-03-22T06:21:29;100714.41;;;9.69;90.73
71764;BME280;59602;52.142;5.408;2023-03-22T06:23:56;100711.28;;;9.71;90.21
71764;BME280;59602;52.142;5.408;2023-03-22T06:26:30;100710.91;;;9.72;90.16
71764;BME280;59602;52.142;5.408;2023-03-22T06:28:57;100715.59;;;9.72;89.90
71764;BME280;59602;52.142;5.408;2023-03-22T06:31:25;100707.84;;;9.77;90.00
71764;BME280;59602;52.142;5.408;2023-03-22T06:33:52;100709.44;;;9.82;90.44
71764;BME280;59602;52.142;5.408;2023-03-22T06:36:21;100707.56;;;9.90;89.96
71764;BME280;59602;52.142;5.408;2023-03-22T06:38:48;100713.03;;;9.97;89.87
71764;BME280;59602;52.142;5.408;2023-03-22T06:41:17;100715.03;;;10.04;89.90
71764;BME280;59602;52.142;5.408;2023-03-22T06:43:45;100711.16;;;10.08;89.23
71764;BME280;59602;52.142;5.408;2023-03-22T06:46:15;100707.72;;;10.11;89.06
71764;BME280;59602;52.142;5.408;2023-03-22T06:48:42;100708.47;;;10.12;89.14
71764;BME280;59602;52.142;5.408;2023-03-22T06:51:12;100720.16;;;10.16;89.02
71764;BME280;59602;52.142;5.408;2023-03-22T06:53:39;100720.16;;;10.19;88.88
71764;BME280;59602;52.142;5.408;2023-03-22T06:56:06;100713.97;;;10.23;89.15
71764;BME280;59602;52.142;5.408;2023-03-22T06:58:35;100713.59;;;10.28;89.16
71764;BME280;59602;52.142;5.408;2023-03-22T07:01:02;100719.47;;;10.33;88.60
71764;BME280;59602;52.142;5.408;2023-03-22T07:03:35;100721.84;;;10.38;88.27
71764;BME280;59602;52.142;5.408;2023-03-22T07:06:11;100721.47;;;10.40;88.24
71764;BME280;59602;52.142;5.408;2023-03-22T07:08:38;100719.53;;;10.41;87.54
71764;BME280;59602;52.142;5.408;2023-03-22T07:11:05;100716.81;;;10.41;87.56
71764;BME280;59602;52.142;5.408;2023-03-22T07:13:32;100714.09;;;10.41;87.39
71764;BME280;59602;52.142;5.408;2023-03-22T07:16:00;100710.97;;;10.38;87.18
71764;BME280;59602;52.142;5.408;2023-03-22T07:18:28;100709.81;;;10.39;87.56
71764;BME280;59602;52.142;5.408;2023-03-22T07:20:55;100723.03;;;10.41;87.35
71764;BME280;59602;52.142;5.408;2023-03-22T07:23:22;100712.16;;;10.41;87.08
71764;BME280;59602;52.142;5.408;2023-03-22T07:25:49;100723.81;;;10.42;86.94
71764;BME280;59602;52.142;5.408;2023-03-22T07:28:18;100713.31;;;10.40;86.66
71764;BME280;59602;52.142;5.408;2023-03-22T07:30:47;100715.28;;;10.43;86.62
71764;BME280;59602;52.142;5.408;2023-03-22T07:33:14;100714.91;;;10.48;86.65
71764;BME280;59602;52.142;5.408;2023-03-22T07:35:55;100720.38;;;10.52;86.27
71764;BME280;59602;52.142;5.408;2023-03-22T07:38:23;100711.44;;;10.55;86.25
71764;BME280;59602;52.142;5.408;2023-03-22T07:40:51;100711.06;;;10.60;86.12
71764;BME280;59602;52.142;5.408;2023-03-22T07:43:21;100714.19;;;10.62;85.84
71764;BME280;59602;52.142;5.408;2023-03-22T07:45:49;100716.16;;;10.65;85.73
71764;BME280;59602;52.142;5.408;2023-03-22T07:48:17;100696.72;;;10.67;85.24
71764;BME280;59602;52.142;5.408;2023-03-22T07:50:46;100719.63;;;10.66;85.10
71764;BME280;59602;52.142;5.408;2023-03-22T07:53:13;100712.63;;;10.65;85.13
71764;BME280;59602;52.142;5.408;2023-03-22T07:55:43;100717.69;;;10.66;84.83
71764;BME280;59602;52.142;5.408;2023-03-22T07:58:09;100713.44;;;10.69;84.69
71764;BME280;59602;52.142;5.408;2023-03-22T08:00:37;100712.28;;;10.73;84.97
71764;BME280;59602;52.142;5.408;2023-03-22T08:03:04;100716.19;;;10.79;84.80
71764;BME280;59602;52.142;5.408;2023-03-22T08:05:31;100723.59;;;10.86;84.77
71764;BME280;59602;52.142;5.408;2023-03-22T08:07:58;100713.50;;;10.94;84.91
71764;BME280;59602;52.142;5.408;2023-03-22T08:10:26;100713.16;;;10.99;84.55
71764;BME280;59602;52.142;5.408;2023-03-22T08:12:53;100712.75;;;11.04;84.09
71764;BME280;59602;52.142;5.408;2023-03-22T08:15:20;100714.31;;;11.05;83.66
71764;BME280;59602;52.142;5.408;2023-03-22T08:17:48;100711.97;;;11.07;84.20
71764;BME280;59602;52.142;5.408;2023-03-22T08:20:15;100708.09;;;11.08;83.69
71764;BME280;59602;52.142;5.408;2023-03-22T08:22:44;100715.09;;;11.06;83.13
71764;BME280;59602;52.142;5.408;2023-03-22T08:25:10;100709.66;;;11.06;83.25
71764;BME280;59602;52.142;5.408;2023-03-22T08:27:37;100707.34;;;11.08;82.82
71764;BME280;59602;52.142;5.408;2023-03-22T08:30:04;100712.38;;;11.09;82.99
71764;BME280;59602;52.142;5.408;2023-03-22T08:32:32;100706.94;;;11.09;82.63
71764;BME280;59602;52.142;5.408;2023-03-22T08:34:59;100699.94;;;11.15;83.05
71764;BME280;59602;52.142;5.408;2023-03-22T08:37:26;100708.50;;;11.17;82.96
71764;BME280;59602;52.142;5.408;2023-03-22T08:39:53;100709.28;;;11.18;83.20
71764;BME280;59602;52.142;5.408;2023-03-22T08:42:20;100710.09;;;11.26;83.06
71764;BME280;59602;52.142;5.408;2023-03-22T08:44:56;100701.16;;;11.32;82.34
71764;BME280;59602;52.142;5.408;2023-03-22T08:47:23;100718.63;;;11.31;81.91
71764;BME280;59602;52.142;5.408;2023-03-22T08:49:49;100701.16;;;11.32;82.09
71764;BME280;59602;52.142;5.408;2023-03-22T08:52:23;100693.75;;;11.40;82.49
71764;BME280;59602;52.142;5.408;2023-03-22T08:54:52;100700.34;;;11.42;81.47
71764;BME280;59602;52.142;5.408;2023-03-22T08:57:19;100699.97;;;11.40;81.07
71764;BME280;59602;52.142;5.408;2023-03-22T08:59:47;100701.91;;;11.40;81.73
71764;BME280;59602;52.142;5.408;2023-03-22T09:02:14;100701.94;;;11.36;80.78
71764;BME280;59602;52.142;5.408;2023-03-22T09:04:41;100705.78;;;11.32;80.96
71764;BME280;59602;52.142;5.408;2023-03-22T09:07:08;100711.25;;;11.28;81.41
71764;BME280;59602;52.142;5.408;2023-03-22T09:09:35;100711.25;;;11.28;81.58
71764;BME280;59602;52.142;5.408;2023-03-22T09:12:02;100705.44;;;11.30;82.00
71764;BME280;59602;52.142;5.408;2023-03-22T09:14:29;100702.28;;;11.31;81.27
71764;BME280;59602;52.142;5.408;2023-03-22T09:16:55;100706.56;;;11.36;81.30
71764;BME280;59602;52.142;5.408;2023-03-22T09:19:27;100706.56;;;11.36;80.72
71764;BME280;59602;52.142;5.408;2023-03-22T09:21:57;100719.44;;;11.39;80.69
71764;BME280;59602;52.142;5.408;2023-03-22T09:24:23;100711.25;;;11.39;80.26
71764;BME280;59602;52.142;5.408;2023-03-22T09:26:51;100727.59;;;11.39;80.66
71764;BME280;59602;52.142;5.408;2023-03-22T09:29:18;100710.47;;;11.38;81.09
71764;BME280;59602;52.142;5.408;2023-03-22T09:31:45;100714.38;;;11.37;81.52
71764;BME280;59602;52.142;5.408;2023-03-22T09:34:14;100719.03;;;11.33;81.64
71764;BME280;59602;52.142;5.408;2023-03-22T09:36:41;100721.75;;;11.33;81.48
71764;BME280;59602;52.142;5.408;2023-03-22T09:39:07;100723.31;;;11.31;82.47
71764;BME280;59602;52.142;5.408;2023-03-22T09:44:07;100724.84;;;11.32;83.56
71764;BME280;59602;52.142;5.408;2023-03-22T09:46:38;100716.69;;;11.28;83.74
71764;BME280;59602;52.142;5.408;2023-03-22T09:49:13;100712.81;;;11.26;83.69
71764;BME280;59602;52.142;5.408;2023-03-22T09:51:45;100714.34;;;11.23;83.85
71764;BME280;59602;52.142;5.408;2023-03-22T09:54:18;100717.84;;;11.20;84.79
71764;BME280;59602;52.142;5.408;2023-03-22T09:56:53;100712.78;;;11.08;85.68
71764;BME280;59602;52.142;5.408;2023-03-22T10:02:14;100703.03;;;11.07;86.34
71764;BME280;59602;52.142;5.408;2023-03-22T10:07:33;100702.66;;;11.05;86.92
71764;BME280;59602;52.142;5.408;2023-03-22T10:10:12;100700.72;;;11.01;87.38
71764;BME280;59602;52.142;5.408;2023-03-22T10:13:05;100702.25;;;11.02;87.86
71764;BME280;59602;52.142;5.408;2023-03-22T10:15:50;100703.44;;;11.01;87.76
71764;BME280;59602;52.142;5.408;2023-03-22T10:18:22;100698.00;;;11.01;87.54
71764;BME280;59602;52.142;5.408;2023-03-22T10:20:58;100699.53;;;11.02;88.04
71764;BME280;59602;52.142;5.408;2023-03-22T10:23:37;100701.09;;;11.04;88.11
71764;BME280;59602;52.142;5.408;2023-03-22T10:26:17;100702.25;;;11.02;88.63
71764;BME280;59602;52.142;5.408;2023-03-22T10:28:57;100701.50;;;11.06;88.71
71764;BME280;59602;52.142;5.408;2023-03-22T10:31:29;100708.09;;;11.05;88.99
71764;BME280;59602;52.142;5.408;2023-03-22T10:34:01;100706.91;;;11.02;88.97
71764;BME280;59602;52.142;5.408;2023-03-22T10:36:30;100703.06;;;11.03;89.59
71764;BME280;59602;52.142;5.408;2023-03-22T10:39:10;100705.75;;;11.07;89.99
71764;BME280;59602;52.142;5.408;2023-03-22T10:41:42;100715.09;;;11.06;89.35
71764;BME280;59602;52.142;5.408;2023-03-22T10:44:16;100706.53;;;11.00;89.57
71764;BME280;59602;52.142;5.408;2023-03-22T10:46:45;100716.25;;;10.97;89.62
71764;BME280;59602;52.142;5.408;2023-03-22T10:49:22;100708.84;;;10.98;89.94
71764;BME280;59602;52.142;5.408;2023-03-22T10:52:03;100710.41;;;10.99;89.74
71764;BME280;59602;52.142;5.408;2023-03-22T10:54:30;100706.13;;;10.98;89.74
71764;BME280;59602;52.142;5.408;2023-03-22T10:56:57;100716.22;;;10.94;90.15
71764;BME280;59602;52.142;5.408;2023-03-22T10:59:43;100705.34;;;10.94;90.46
71764;BME280;59602;52.142;5.408;2023-03-22T11:04:48;100699.16;;;11.04;90.55
71764;BME280;59602;52.142;5.408;2023-03-22T11:07:27;100701.88;;;11.04;90.42
71764;BME280;59602;52.142;5.408;2023-03-22T11:09:59;100681.28;;;11.07;90.13
71764;BME280;59602;52.142;5.408;2023-03-22T11:12:40;100688.28;;;11.15;90.43
71764;BME280;59602;52.142;5.408;2023-03-22T11:15:26;100688.69;;;11.24;90.23
71764;BME280;59602;52.142;5.408;2023-03-22T11:18:04;100693.34;;;11.27;90.41
71764;BME280;59602;52.142;5.408;2023-03-22T11:20:32;100691.03;;;11.26;89.86
71764;BME280;59602;52.142;5.408;2023-03-22T11:23:02;100683.63;;;11.26;90.22
71764;BME280;59602;52.142;5.408;2023-03-22T11:25:33;100689.47;;;11.25;89.72
71764;BME280;59602;52.142;5.408;2023-03-22T11:30:32;100681.69;;;11.30;89.96
71764;BME280;59602;52.142;5.408;2023-03-22T11:33:15;100694.53;;;11.33;90.04
71764;BME280;59602;52.142;5.408;2023-03-22T11:35:45;100668.88;;;11.34;90.15
71764;BME280;59602;52.142;5.408;2023-03-22T11:38:26;100681.28;;;11.32;89.75
71764;BME280;59602;52.142;5.408;2023-03-22T11:41:01;100685.22;;;11.34;89.21
71764;BME280;59602;52.142;5.408;2023-03-22T11:43:39;100693.34;;;11.38;89.29
71764;BME280;59602;52.142;5.408;2023-03-22T11:46:10;100685.19;;;11.38;88.80
71764;BME280;59602;52.142;5.408;2023-03-22T11:48:39;100699.59;;;11.35;88.75
71764;BME280;59602;52.142;5.408;2023-03-22T11:51:15;100687.94;;;11.34;88.73
71764;BME280;59602;52.142;5.408;2023-03-22T11:53:46;100698.44;;;11.32;88.08
71764;BME280;59602;52.142;5.408;2023-03-22T11:56:17;100703.06;;;11.32;88.51
71764;BME280;59602;52.142;5.408;2023-03-22T11:58:55;100708.16;;;11.30;88.16
71764;BME280;59602;52.142;5.408;2023-03-22T12:01:34;100706.56;;;11.29;88.05
71764;BME280;59602;52.142;5.408;2023-03-22T12:04:10;100713.19;;;11.28;88.28
71764;BME280;59602;52.142;5.408;2023-03-22T12:06:45;100720.97;;;11.29;88.62
71764;BME280;59602;52.142;5.408;2023-03-22T12:09:38;100705.03;;;11.28;88.37
71764;BME280;59602;52.142;5.408;2023-03-22T12:12:14;100717.44;;;11.25;88.36
71764;BME280;59602;52.142;5.408;2023-03-22T12:14:52;100705.78;;;11.25;88.35
71764;BME280;59602;52.142;5.408;2023-03-22T12:20:01;100698.03;;;11.23;87.97
71764;BME280;59602;52.142;5.408;2023-03-22T12:22:57;100698.78;;;11.27;87.77
71764;BME280;59602;52.142;5.408;2023-03-22T12:25:29;100701.53;;;11.31;87.72
71764;BME280;59602;52.142;5.408;2023-03-22T12:28:02;100705.03;;;11.31;88.02
71764;BME280;59602;52.142;5.408;2023-03-22T12:30:39;100698.44;;;11.32;87.87
71764;BME280;59602;52.142;5.408;2023-03-22T12:35:56;100703.47;;;11.30;87.12
71764;BME280;59602;52.142;5.408;2023-03-22T12:38:26;100717.09;;;11.30;87.08
71764;BME280;59602;52.142;5.408;2023-03-22T12:40:56;100709.69;;;11.27;87.01
71764;BME280;59602;52.142;5.408;2023-03-22T12:43:47;100704.63;;;11.29;87.42
71764;BME280;59602;52.142;5.408;2023-03-22T12:46:42;100696.47;;;11.29;87.14
71764;BME280;59602;52.142;5.408;2023-03-22T12:49:20;100701.91;;;11.29;87.41
71764;BME280;59602;52.142;5.408;2023-03-22T12:51:53;100691.41;;;11.31;87.45
71764;BME280;59602;52.142;5.408;2023-03-22T12:54:23;100686.75;;;11.32;87.35
71764;BME280;59602;52.142;5.408;2023-03-22T12:56:53;100682.09;;;11.32;87.27
71764;BME280;59602;52.142;5.408;2023-03-22T12:59:23;100683.63;;;11.33;87.54
71764;BME280;59602;52.142;5.408;2023-03-22T13:01:54;100692.19;;;11.35;87.43
71764;BME280;59602;52.142;5.408;2023-03-22T13:07:14;100689.09;;;11.37;87.38
71764;BME280;59602;52.142;5.408;2023-03-22T13:09:44;100682.09;;;11.39;87.45
71764;BME280;59602;52.142;5.408;2023-03-22T13:19:57;100689.09;;;11.37;87.57
71764;BME280;59602;52.142;5.408;2023-03-22T13:25:37;100699.97;;;11.37;87.88
71764;BME280;59602;52.142;5.408;2023-03-22T13:28:22;100700.38;;;11.39;87.93
71764;BME280;59602;52.142;5.408;2023-03-22T13:30:54;100692.22;;;11.39;87.54
71764;BME280;59602;52.142;5.408;2023-03-22T13:33:28;100688.69;;;11.38;88.01
71764;BME280;59602;52.142;5.408;2023-03-22T13:35:57;100686.75;;;11.39;87.61
71764;BME280;59602;52.142;5.408;2023-03-22T13:38:27;100688.31;;;11.36;87.57
71764;BME280;59602;52.142;5.408;2023-03-22T13:43:42;100693.75;;;11.36;87.98
71764;BME280;59602;52.142;5.408;2023-03-22T13:49:12;100693.34;;;11.38;88.15
71764;BME280;59602;52.142;5.408;2023-03-22T13:51:43;100692.22;;;11.39;88.40
71764;BME280;59602;52.142;5.408;2023-03-22T13:59:28;100678.97;;;11.45;88.56
71764;BME280;59602;52.142;5.408;2023-03-22T14:02:18;100681.31;;;11.46;88.72
71764;BME280;59602;52.142;5.408;2023-03-22T14:04:56;100687.91;;;11.49;89.11
71764;BME280;59602;52.142;5.408;2023-03-22T14:10:30;100684.81;;;11.50;89.03
71764;BME280;59602;52.142;5.408;2023-03-22T14:13:13;100672.75;;;11.51;88.81
71764;BME280;59602;52.142;5.408;2023-03-22T14:15:48;100672.75;;;11.55;88.85
71764;BME280;59602;52.142;5.408;2023-03-22T14:18:23;100659.53;;;11.57;89.55
71764;BME280;59602;52.142;5.408;2023-03-22T14:20:59;100662.25;;;11.57;89.35
71764;BME280;59602;52.142;5.408;2023-03-22T14:23:33;100656.41;;;11.58;89.16
71764;BME280;59602;52.142;5.408;2023-03-22T14:26:05;100650.56;;;11.60;89.36
71764;BME280;59602;52.142;5.408;2023-03-22T14:28:34;100644.34;;;11.63;89.42